Time;durP1;ratioP1;P1;durP2;ratioP2;P2;SDS_P1;SDS_P2;PMS_P1;PMS_P2;Temp;Humidity;BMP_temperature;BMP_pressure;BME280_temperature;BME280_humidity;BME280_pressure;Samples;Min_cycle;Max_cycle;Signal;HPM_P1;HPM_P2
2023/09/08 00:02:19;;;;;;;12.33;10.10;;;19.40;99.90;;;;;;5042062;28;20228;-61
2023/09/08 00:04:47;;;;;;;10.63;9.50;;;19.30;99.90;;;;;;5046240;28;20232;-61
2023/09/08 00:07:15;;;;;;;13.13;9.80;;;19.30;99.90;;;;;;5044835;28;20227;-61
2023/09/08 00:09:45;;;;;;;10.90;9.33;;;19.20;99.90;;;;;;5044269;28;20278;-61
2023/09/08 00:12:14;;;;;;;10.80;9.67;;;19.20;99.90;;;;;;5046362;28;20218;-60
2023/09/08 00:14:42;;;;;;;11.67;10.17;;;19.20;99.90;;;;;;5043539;28;20871;-61
2023/09/08 00:17:11;;;;;;;13.97;10.40;;;19.10;99.90;;;;;;5045483;28;20240;-60
2023/09/08 00:19:41;;;;;;;11.40;10.30;;;19.20;99.90;;;;;;5043944;28;20227;-61
2023/09/08 00:22:09;;;;;;;13.53;10.50;;;19.20;99.90;;;;;;5042221;28;20311;-60
2023/09/08 00:24:37;;;;;;;16.77;11.00;;;19.10;99.90;;;;;;5046539;28;20235;-61
2023/09/08 00:27:09;;;;;;;15.13;10.90;;;19.20;99.90;;;;;;5047612;28;20211;-60
2023/09/08 00:29:37;;;;;;;11.90;10.80;;;19.20;99.90;;;;;;5042124;28;20204;-61
2023/09/08 00:32:06;;;;;;;12.03;10.53;;;19.10;99.90;;;;;;5042693;28;21998;-61
2023/09/08 00:34:35;;;;;;;11.47;10.03;;;19.10;99.90;;;;;;5046420;28;20267;-60
2023/09/08 00:37:07;;;;;;;11.83;10.43;;;19.10;99.90;;;;;;5049621;28;20552;-60
2023/09/08 00:39:36;;;;;;;15.60;10.50;;;19.10;99.90;;;;;;5046478;28;20224;-60
2023/09/08 00:42:05;;;;;;;14.00;11.17;;;19.00;99.90;;;;;;5050121;28;20556;-60
2023/09/08 00:44:35;;;;;;;11.23;10.23;;;19.00;99.90;;;;;;5045640;28;20195;-60
2023/09/08 00:47:04;;;;;;;12.77;9.83;;;19.00;99.90;;;;;;5045284;28;20252;-60
2023/09/08 00:49:32;;;;;;;10.73;9.70;;;18.90;99.90;;;;;;5030137;28;20217;-60
2023/09/08 00:52:01;;;;;;;11.93;9.90;;;18.90;99.90;;;;;;5020118;28;20218;-61
2023/09/08 00:54:30;;;;;;;14.67;10.83;;;18.90;99.90;;;;;;5019752;28;20233;-61
2023/09/08 00:56:59;;;;;;;13.67;10.60;;;18.90;99.90;;;;;;5022008;28;20875;-61
2023/09/08 00:59:28;;;;;;;12.27;10.53;;;18.80;99.90;;;;;;5018499;28;20224;-61
2023/09/08 01:01:58;;;;;;;13.03;10.00;;;18.80;99.90;;;;;;5024019;28;20217;-61
2023/09/08 01:04:26;;;;;;;12.37;10.20;;;18.80;99.90;;;;;;5023875;28;20229;-61
2023/09/08 01:06:56;;;;;;;13.63;10.57;;;18.80;99.90;;;;;;5023468;28;20237;-61
2023/09/08 01:09:25;;;;;;;13.57;10.90;;;18.70;99.90;;;;;;5024898;28;20238;-61
2023/09/08 01:11:55;;;;;;;12.23;10.80;;;18.70;99.90;;;;;;5021348;28;20233;-61
2023/09/08 01:14:23;;;;;;;12.37;10.27;;;18.70;99.90;;;;;;5025491;28;20619;-61
2023/09/08 01:16:52;;;;;;;14.93;10.53;;;18.60;99.90;;;;;;5026526;28;20744;-61
2023/09/08 01:19:22;;;;;;;12.40;10.30;;;18.60;99.90;;;;;;5019833;28;20221;-61
2023/09/08 01:22:23;;;;;;;11.23;10.13;;;18.50;99.90;;;;;;5025677;28;20228;-64
2023/09/08 01:25:13;;;;;;;11.90;9.50;;;18.50;99.90;;;;;;5024726;28;20218;-61
2023/09/08 01:27:46;;;;;;;17.70;11.73;;;18.50;99.90;;;;;;5021282;28;20597;-60
2023/09/08 01:30:16;;;;;;;14.93;12.43;;;18.50;99.90;;;;;;5022108;28;20289;-60
2023/09/08 01:32:45;;;;;;;15.30;12.03;;;18.50;99.90;;;;;;5024863;28;20189;-60
2023/09/08 01:35:15;;;;;;;15.93;11.27;;;18.50;99.90;;;;;;5026500;28;20241;-60
2023/09/08 01:37:45;;;;;;;11.50;10.40;;;18.50;99.90;;;;;;5024263;28;20217;-60
2023/09/08 01:40:15;;;;;;;12.43;10.10;;;18.50;99.90;;;;;;5028238;28;20229;-60
2023/09/08 01:42:46;;;;;;;11.40;10.10;;;18.50;99.90;;;;;;5029354;28;20229;-60
2023/09/08 01:45:15;;;;;;;12.13;9.73;;;18.40;99.90;;;;;;5020651;28;20285;-60
2023/09/08 01:47:43;;;;;;;11.33;10.03;;;18.40;99.90;;;;;;5026919;28;20244;-60
2023/09/08 01:50:11;;;;;;;11.17;10.07;;;18.30;99.90;;;;;;5027864;28;20216;-60
2023/09/08 01:52:40;;;;;;;13.50;10.90;;;18.30;99.90;;;;;;5026470;28;20229;-60
2023/09/08 01:55:08;;;;;;;11.93;10.40;;;18.30;99.90;;;;;;5027108;28;20568;-60
2023/09/08 01:57:38;;;;;;;12.07;9.83;;;18.30;99.90;;;;;;5025191;28;20316;-61
2023/09/08 02:00:08;;;;;;;14.27;9.57;;;18.30;99.90;;;;;;5027339;28;20194;-60
2023/09/08 02:02:36;;;;;;;11.97;8.77;;;18.20;99.90;;;;;;5023457;28;20221;-61
2023/09/08 02:05:04;;;;;;;14.87;9.30;;;18.20;99.90;;;;;;5022860;28;20514;-62
2023/09/08 02:07:33;;;;;;;12.57;9.50;;;18.10;99.90;;;;;;5024084;28;20229;-61
2023/09/08 02:10:01;;;;;;;14.40;9.73;;;18.10;99.90;;;;;;5023095;28;20562;-61
2023/09/08 02:12:30;;;;;;;12.70;8.90;;;18.10;99.90;;;;;;5031539;28;20975;-61
2023/09/08 02:15:00;;;;;;;10.27;9.00;;;18.10;99.90;;;;;;5043968;28;20201;-61
2023/09/08 02:17:29;;;;;;;12.37;9.13;;;18.10;99.90;;;;;;5024092;28;20224;-61
2023/09/08 02:19:57;;;;;;;10.03;9.03;;;18.10;99.90;;;;;;5021719;28;20222;-61
2023/09/08 02:22:26;;;;;;;11.77;9.00;;;18.10;99.90;;;;;;5023079;28;20292;-61
2023/09/08 02:24:56;;;;;;;13.13;9.70;;;18.10;99.90;;;;;;5023644;28;20226;-61
2023/09/08 02:27:24;;;;;;;12.40;10.20;;;18.10;99.90;;;;;;5022614;28;20313;-61
2023/09/08 02:29:53;;;;;;;12.60;9.30;;;18.10;99.90;;;;;;5022623;28;20186;-61
2023/09/08 02:32:22;;;;;;;11.33;9.83;;;18.10;99.90;;;;;;5023017;28;20264;-61
2023/09/08 02:34:52;;;;;;;13.37;10.27;;;18.10;99.90;;;;;;5020366;28;20318;-61
2023/09/08 02:37:20;;;;;;;12.37;10.53;;;18.00;99.90;;;;;;5024049;28;20304;-61
2023/09/08 02:39:49;;;;;;;15.93;11.23;;;18.10;99.90;;;;;;5018214;28;20224;-61
2023/09/08 02:42:17;;;;;;;19.63;10.97;;;18.00;99.90;;;;;;5020432;28;20657;-61
2023/09/08 02:44:45;;;;;;;12.93;10.40;;;18.00;99.90;;;;;;5024239;28;20785;-61
2023/09/08 02:47:14;;;;;;;13.40;10.67;;;18.00;99.90;;;;;;5025921;28;20221;-61
2023/09/08 02:49:43;;;;;;;13.47;10.60;;;18.00;99.90;;;;;;5020874;28;20232;-61
2023/09/08 02:52:11;;;;;;;12.63;10.97;;;18.00;99.90;;;;;;5024584;28;20209;-61
2023/09/08 02:54:40;;;;;;;16.20;11.40;;;18.00;99.90;;;;;;5023701;28;20218;-61
2023/09/08 02:57:08;;;;;;;11.93;10.63;;;17.90;99.90;;;;;;5020004;28;20313;-61
2023/09/08 02:59:37;;;;;;;15.90;12.53;;;17.90;99.90;;;;;;5019430;28;20201;-61
2023/09/08 03:02:05;;;;;;;14.43;12.90;;;17.90;99.90;;;;;;5017467;28;20221;-61
2023/09/08 03:04:34;;;;;;;15.07;12.47;;;17.90;99.90;;;;;;5034000;28;20220;-61
2023/09/08 03:07:04;;;;;;;18.93;12.73;;;17.90;99.90;;;;;;5040019;28;20274;-61
2023/09/08 03:09:37;;;;;;;18.27;13.07;;;18.00;99.90;;;;;;5043212;28;20234;-64
2023/09/08 03:12:13;;;;;;;15.37;13.00;;;18.00;99.90;;;;;;5040546;28;20251;-65
2023/09/08 03:14:42;;;;;;;16.83;13.07;;;17.90;99.90;;;;;;5043380;28;20236;-58
2023/09/08 03:17:10;;;;;;;15.33;13.07;;;18.00;99.90;;;;;;5037755;28;20216;-58
2023/09/08 03:19:39;;;;;;;19.80;14.93;;;18.00;99.90;;;;;;5041252;28;20225;-59
2023/09/08 03:22:09;;;;;;;19.53;14.13;;;18.00;99.90;;;;;;5042314;28;20224;-59
2023/09/08 03:24:37;;;;;;;20.30;14.33;;;18.10;99.90;;;;;;5041973;28;21402;-59
2023/09/08 03:27:06;;;;;;;18.23;14.37;;;18.10;99.90;;;;;;5044569;28;20193;-58
2023/09/08 03:29:34;;;;;;;16.17;12.83;;;18.10;99.90;;;;;;5044618;28;20549;-59
2023/09/08 03:32:03;;;;;;;21.03;13.53;;;18.10;99.90;;;;;;5039907;28;20216;-58
2023/09/08 03:34:31;;;;;;;21.53;14.53;;;18.10;99.90;;;;;;5041731;28;20225;-58
2023/09/08 03:37:00;;;;;;;21.70;13.70;;;18.10;99.90;;;;;;5042176;28;20229;-58
2023/09/08 03:39:30;;;;;;;16.17;13.77;;;18.10;99.90;;;;;;5041606;28;20228;-59
2023/09/08 03:41:58;;;;;;;20.40;14.20;;;18.10;99.90;;;;;;5041796;28;20204;-59
2023/09/08 03:44:26;;;;;;;19.90;13.83;;;18.00;99.90;;;;;;5043033;28;20564;-58
2023/09/08 03:46:55;;;;;;;19.33;14.53;;;18.10;99.90;;;;;;5043422;28;20220;-58
2023/09/08 03:49:23;;;;;;;19.53;13.13;;;18.10;99.90;;;;;;5039981;28;20217;-59
2023/09/08 03:51:52;;;;;;;17.27;14.10;;;18.00;99.90;;;;;;5042458;28;20352;-58
2023/09/08 03:54:20;;;;;;;25.00;15.63;;;17.90;99.90;;;;;;5038945;28;20691;-58
2023/09/08 03:56:50;;;;;;;22.17;14.97;;;17.90;99.90;;;;;;5074397;28;20658;-58
2023/09/08 03:59:18;;;;;;;16.50;12.93;;;17.90;99.90;;;;;;5041450;28;20224;-59
2023/09/08 04:01:46;;;;;;;19.00;13.40;;;17.80;99.90;;;;;;5040691;28;20703;-58
2023/09/08 04:04:14;;;;;;;15.43;12.73;;;17.80;99.90;;;;;;5037831;28;20567;-59
2023/09/08 04:06:43;;;;;;;16.57;12.63;;;17.80;99.90;;;;;;5039087;28;20225;-59
2023/09/08 04:09:11;;;;;;;15.60;12.63;;;17.80;99.90;;;;;;5041541;28;20223;-59
2023/09/08 04:11:39;;;;;;;18.10;12.70;;;17.80;99.90;;;;;;5042083;28;20664;-59
2023/09/08 04:14:09;;;;;;;20.70;14.57;;;17.70;99.90;;;;;;5040664;28;20816;-58
2023/09/08 04:16:38;;;;;;;18.87;14.80;;;17.70;99.90;;;;;;5046003;28;20220;-58
2023/09/08 04:19:06;;;;;;;17.00;14.10;;;17.70;99.90;;;;;;5042727;28;20307;-59
2023/09/08 04:21:35;;;;;;;18.20;14.80;;;17.70;99.90;;;;;;5040825;28;20220;-59
2023/09/08 04:24:04;;;;;;;18.13;12.87;;;17.70;99.90;;;;;;5041139;28;20215;-59
2023/09/08 04:26:32;;;;;;;15.97;13.63;;;17.60;99.90;;;;;;5041524;28;20201;-59
2023/09/08 04:29:00;;;;;;;20.17;13.80;;;17.60;99.90;;;;;;5045819;28;20222;-59
2023/09/08 04:31:30;;;;;;;16.93;13.50;;;17.50;99.90;;;;;;5047889;28;20228;-59
2023/09/08 04:33:59;;;;;;;18.33;13.37;;;17.50;99.90;;;;;;5043069;28;20691;-58
2023/09/08 04:36:27;;;;;;;19.43;13.13;;;17.40;99.90;;;;;;5047144;28;20220;-58
2023/09/08 04:38:55;;;;;;;15.27;12.17;;;17.40;99.90;;;;;;5047837;28;20196;-58
2023/09/08 04:41:23;;;;;;;17.97;13.50;;;17.40;99.90;;;;;;5047650;28;20231;-58
2023/09/08 04:43:52;;;;;;;17.50;13.10;;;17.40;99.90;;;;;;5047526;28;20319;-58
2023/09/08 04:46:21;;;;;;;23.20;13.90;;;17.30;99.90;;;;;;5044989;28;20296;-58
2023/09/08 04:48:50;;;;;;;23.60;13.00;;;17.30;99.90;;;;;;5046417;28;20303;-58
2023/09/08 04:51:18;;;;;;;31.63;15.20;;;17.30;99.90;;;;;;5043929;28;20192;-58
2023/09/08 04:53:47;;;;;;;25.67;14.63;;;17.30;99.90;;;;;;5044847;28;20337;-59
2023/09/08 04:56:15;;;;;;;24.17;16.10;;;17.30;99.90;;;;;;5044016;28;20213;-59
2023/09/08 04:58:43;;;;;;;25.43;15.87;;;17.40;99.90;;;;;;5045587;28;20226;-59
2023/09/08 05:01:12;;;;;;;26.20;14.63;;;17.40;99.90;;;;;;5040962;28;20232;-58
2023/09/08 05:03:40;;;;;;;21.90;14.67;;;17.40;99.90;;;;;;5040553;28;20259;-58
2023/09/08 05:06:10;;;;;;;25.73;15.80;;;17.40;99.90;;;;;;5046363;28;20227;-58
2023/09/08 05:08:38;;;;;;;30.07;16.17;;;17.40;99.90;;;;;;5047145;28;20229;-58
2023/09/08 05:11:07;;;;;;;24.47;16.10;;;17.40;99.90;;;;;;5043984;28;20208;-59
2023/09/08 05:13:35;;;;;;;25.10;16.17;;;17.50;99.90;;;;;;5045474;28;20217;-59
2023/09/08 05:16:11;;;;;;;24.63;15.13;;;17.50;99.90;;;;;;5044921;28;20217;-59
2023/09/08 05:18:40;;;;;;;20.60;15.33;;;17.50;99.90;;;;;;5039218;28;20244;-58
2023/09/08 05:21:10;;;;;;;24.07;16.27;;;17.50;99.90;;;;;;5045527;28;20197;-58
2023/09/08 05:23:38;;;;;;;21.27;15.83;;;17.50;99.90;;;;;;5043448;28;20617;-58
2023/09/08 05:26:06;;;;;;;24.70;16.70;;;17.50;99.90;;;;;;5046046;28;20689;-58
2023/09/08 05:28:35;;;;;;;23.63;16.87;;;17.50;99.90;;;;;;5042556;28;20931;-59
2023/09/08 05:31:06;;;;;;;20.93;16.10;;;17.60;99.90;;;;;;5040261;28;20254;-58
2023/09/08 05:33:35;;;;;;;21.43;16.13;;;17.60;99.90;;;;;;5046245;28;20540;-58
2023/09/08 05:36:04;;;;;;;26.57;16.87;;;17.50;99.90;;;;;;5042736;28;20998;-59
2023/09/08 05:38:33;;;;;;;21.13;15.93;;;17.50;99.90;;;;;;5040431;28;20679;-58
2023/09/08 05:41:02;;;;;;;20.30;15.43;;;17.50;99.90;;;;;;5044118;28;20233;-59
2023/09/08 05:43:31;;;;;;;23.80;15.07;;;17.60;99.90;;;;;;5042909;28;20703;-58
2023/09/08 05:46:00;;;;;;;19.43;14.60;;;17.50;99.90;;;;;;5039632;28;20702;-58
2023/09/08 05:48:28;;;;;;;23.17;15.33;;;17.50;99.90;;;;;;5044090;28;20213;-58
2023/09/08 05:50:57;;;;;;;21.97;15.83;;;17.50;99.90;;;;;;5043688;28;20869;-58
2023/09/08 05:53:25;;;;;;;20.57;14.67;;;17.60;99.90;;;;;;5045691;28;20217;-58
2023/09/08 05:55:55;;;;;;;16.23;12.80;;;17.60;99.90;;;;;;5044774;28;20232;-58
2023/09/08 05:58:26;;;;;;;16.77;13.50;;;17.60;99.90;;;;;;5042367;28;20223;-58
2023/09/08 06:00:55;;;;;;;22.83;15.97;;;17.60;99.90;;;;;;5040642;28;20221;-59
2023/09/08 06:03:23;;;;;;;21.63;14.43;;;17.60;99.90;;;;;;5045014;28;20220;-59
2023/09/08 06:05:52;;;;;;;23.70;15.37;;;17.60;99.90;;;;;;5042463;28;20194;-58
2023/09/08 06:08:20;;;;;;;15.53;12.57;;;17.70;99.90;;;;;;5042932;28;20354;-59
2023/09/08 06:10:48;;;;;;;21.73;15.33;;;17.70;99.90;;;;;;5042804;28;20304;-58
2023/09/08 06:13:18;;;;;;;23.53;16.80;;;17.70;99.90;;;;;;5043530;28;20236;-58
2023/09/08 06:15:46;;;;;;;20.37;14.43;;;17.80;99.90;;;;;;5044310;28;20232;-58
2023/09/08 06:18:14;;;;;;;23.20;16.47;;;17.80;99.90;;;;;;5042816;28;20204;-58
2023/09/08 06:20:47;;;;;;;19.70;13.70;;;17.90;99.90;;;;;;5043914;28;20196;-58
2023/09/08 06:23:16;;;;;;;30.07;17.50;;;18.00;99.90;;;;;;5075495;28;20228;-58
2023/09/08 06:25:44;;;;;;;23.30;16.37;;;18.10;99.90;;;;;;5038157;28;20236;-58
2023/09/08 06:28:12;;;;;;;18.93;15.90;;;18.20;99.90;;;;;;5040177;28;20232;-58
2023/09/08 06:30:42;;;;;;;22.37;16.23;;;18.40;99.90;;;;;;5042457;28;20718;-58
2023/09/08 06:33:11;;;;;;;18.47;15.37;;;18.80;99.90;;;;;;5040630;28;20675;-58
2023/09/08 06:35:40;;;;;;;24.33;15.23;;;19.10;99.90;;;;;;5048215;28;20185;-59
2023/09/08 06:38:08;;;;;;;19.87;14.07;;;19.40;99.90;;;;;;5046076;28;20229;-58
2023/09/08 06:40:36;;;;;;;17.80;13.63;;;19.80;99.90;;;;;;5042690;28;20227;-58
2023/09/08 06:43:05;;;;;;;18.77;14.10;;;20.10;99.90;;;;;;5044830;28;20995;-58
2023/09/08 06:45:33;;;;;;;16.70;13.57;;;20.30;99.90;;;;;;5039911;28;20225;-58
2023/09/08 06:48:03;;;;;;;17.30;12.47;;;20.50;99.90;;;;;;5041649;28;20197;-58
2023/09/08 06:50:31;;;;;;;16.80;12.73;;;20.70;99.90;;;;;;5045953;28;20212;-59
2023/09/08 06:53:00;;;;;;;13.20;11.87;;;20.90;99.90;;;;;;5045117;28;20225;-58
2023/09/08 06:55:28;;;;;;;15.27;11.80;;;21.10;99.90;;;;;;5042555;28;20255;-58
2023/09/08 06:57:57;;;;;;;15.57;11.87;;;21.20;99.90;;;;;;5042966;28;20226;-59
2023/09/08 07:00:26;;;;;;;15.93;11.37;;;21.50;99.90;;;;;;5042469;28;20312;-58
2023/09/08 07:02:54;;;;;;;14.50;11.20;;;21.60;99.90;;;;;;5043050;28;20204;-58
2023/09/08 07:05:24;;;;;;;14.90;11.50;;;21.70;99.90;;;;;;5046282;28;20575;-58
2023/09/08 07:07:52;;;;;;;14.03;10.93;;;21.80;99.90;;;;;;5044731;28;21914;-59
2023/09/08 07:10:21;;;;;;;18.60;10.50;;;22.00;99.90;;;;;;5044740;28;20217;-59
2023/09/08 07:12:50;;;;;;;14.93;10.43;;;22.20;99.90;;;;;;5045691;28;20220;-59
2023/09/08 07:15:18;;;;;;;12.00;10.27;;;22.30;99.90;;;;;;5042015;28;20181;-59
2023/09/08 07:17:46;;;;;;;16.13;10.73;;;22.40;99.90;;;;;;5044135;28;20199;-58
2023/09/08 07:20:15;;;;;;;12.23;9.63;;;22.50;99.90;;;;;;5045482;28;20230;-58
2023/09/08 07:22:46;;;;;;;12.50;10.30;;;22.60;99.90;;;;;;5046058;28;20750;-59
2023/09/08 07:25:15;;;;;;;11.60;9.83;;;22.80;99.90;;;;;;5044731;28;20304;-59
2023/09/08 07:27:44;;;;;;;15.90;9.97;;;22.90;99.90;;;;;;5044010;28;20670;-59
2023/09/08 07:30:13;;;;;;;10.17;9.07;;;23.00;99.90;;;;;;5045490;28;20190;-58
2023/09/08 07:32:42;;;;;;;10.10;8.70;;;23.20;99.90;;;;;;5046280;28;20288;-59
2023/09/08 07:35:13;;;;;;;11.23;9.17;;;23.30;99.90;;;;;;5044725;28;20229;-59
2023/09/08 07:37:42;;;;;;;11.07;9.37;;;23.40;99.90;;;;;;5045958;28;20217;-59
2023/09/08 07:40:13;;;;;;;9.67;8.63;;;23.60;99.90;;;;;;5046694;28;20222;-58
2023/09/08 07:42:41;;;;;;;10.63;8.40;;;23.70;99.90;;;;;;5037536;28;20277;-59
2023/09/08 07:45:10;;;;;;;12.27;8.70;;;23.80;99.90;;;;;;5040664;28;20218;-59
2023/09/08 07:47:39;;;;;;;15.07;8.60;;;24.00;99.90;;;;;;5044707;28;20252;-59
2023/09/08 07:50:22;;;;;;;10.40;8.80;;;24.10;99.90;;;;;;5042684;28;20231;-59
2023/09/08 07:52:51;;;;;;;8.63;7.60;;;24.30;99.90;;;;;;5042850;28;20270;-59
2023/09/08 07:55:23;;;;;;;8.70;7.87;;;24.40;99.90;;;;;;5045174;28;20215;-59
2023/09/08 07:57:52;;;;;;;9.13;8.03;;;24.40;99.90;;;;;;5045287;28;20296;-59
2023/09/08 08:00:21;;;;;;;11.63;7.73;;;24.50;99.90;;;;;;5045470;28;20255;-58
2023/09/08 08:02:51;;;;;;;8.90;8.00;;;24.70;99.90;;;;;;5046293;28;20220;-59
2023/09/08 08:05:20;;;;;;;9.60;8.03;;;24.80;99.90;;;;;;5050043;28;20222;-59
2023/09/08 08:07:49;;;;;;;10.13;7.60;;;24.90;99.90;;;;;;5040646;28;20377;-58
2023/09/08 08:10:17;;;;;;;9.60;7.77;;;25.00;99.90;;;;;;5045829;28;20221;-59
2023/09/08 08:12:47;;;;;;;11.50;7.80;;;25.10;99.90;;;;;;5048182;28;21066;-59
2023/09/08 08:15:15;;;;;;;11.40;7.57;;;25.20;99.90;;;;;;5050074;28;20477;-59
2023/09/08 08:17:44;;;;;;;13.07;7.80;;;25.20;99.90;;;;;;5045466;28;20284;-59
2023/09/08 08:20:17;;;;;;;8.43;7.53;;;25.20;99.90;;;;;;5079260;28;20239;-59
2023/09/08 08:22:46;;;;;;;9.83;7.57;;;25.20;99.90;;;;;;5048490;28;20221;-59
2023/09/08 08:25:15;;;;;;;10.73;6.57;;;25.30;99.90;;;;;;5044517;28;20254;-59
2023/09/08 08:27:44;;;;;;;9.13;7.30;;;25.50;99.90;;;;;;5045590;28;20237;-60
2023/09/08 08:30:14;;;;;;;8.00;7.40;;;25.50;99.90;;;;;;5047437;28;20189;-59
2023/09/08 08:32:42;;;;;;;8.30;6.73;;;25.50;99.90;;;;;;5048438;28;20194;-59
2023/09/08 08:35:11;;;;;;;12.40;7.17;;;25.60;99.90;;;;;;5048259;28;20232;-59
2023/09/08 08:37:41;;;;;;;14.50;7.63;;;25.70;99.90;;;;;;5046444;28;20610;-59
2023/09/08 08:40:12;;;;;;;12.07;7.30;;;25.70;99.90;;;;;;5048085;28;20235;-59
2023/09/08 08:42:42;;;;;;;13.50;7.03;;;25.80;99.90;;;;;;5049110;28;21725;-59
2023/09/08 08:45:11;;;;;;;8.63;6.57;;;26.00;99.90;;;;;;5046554;28;20741;-60
2023/09/08 08:47:42;;;;;;;8.63;6.80;;;26.20;99.90;;;;;;5047004;28;20185;-59
2023/09/08 08:50:12;;;;;;;8.10;7.30;;;26.20;99.90;;;;;;5047853;28;20221;-59
2023/09/08 08:52:40;;;;;;;12.47;6.93;;;26.40;99.90;;;;;;5044446;28;20327;-59
2023/09/08 08:55:09;;;;;;;13.13;8.20;;;26.50;99.90;;;;;;5042026;28;20232;-59
2023/09/08 08:57:38;;;;;;;10.57;7.07;;;26.60;99.90;;;;;;5044986;28;20269;-59
2023/09/08 09:00:11;;;;;;;11.00;7.87;;;26.80;99.90;;;;;;5045858;28;20224;-59
2023/09/08 09:02:43;;;;;;;10.48;7.20;;;26.60;99.90;;;;;;5042571;28;20209;-59
2023/09/08 09:05:20;;;;;;;14.90;6.60;;;26.70;99.90;;;;;;5044079;28;20298;-60
2023/09/08 09:07:50;;;;;;;10.13;6.33;;;26.90;99.90;;;;;;5048684;28;20219;-59
2023/09/08 09:10:18;;;;;;;8.18;6.70;;;26.90;99.90;;;;;;5046051;28;20738;-59
2023/09/08 09:12:46;;;;;;;8.15;6.05;;;27.00;99.90;;;;;;5043804;28;20233;-59
2023/09/08 09:15:16;;;;;;;17.23;6.93;;;26.90;99.90;;;;;;5042561;28;20202;-59
2023/09/08 09:18:03;;;;;;;9.10;6.60;;;27.00;99.90;;;;;;5047271;28;20534;-59
2023/09/08 09:20:33;;;;;;;8.77;6.10;;;27.10;99.90;;;;;;5045947;28;20219;-60
2023/09/08 09:23:01;;;;;;;10.93;6.10;;;27.10;99.90;;;;;;5042870;28;20230;-59
2023/09/08 09:25:32;;;;;;;9.40;5.90;;;27.20;99.90;;;;;;5042764;28;20341;-59
2023/09/08 09:28:02;;;;;;;10.02;6.13;;;27.20;99.90;;;;;;5040501;28;20220;-60
2023/09/08 09:30:48;;;;;;;7.47;6.07;;;27.20;99.90;;;;;;5046112;28;20263;-60
2023/09/08 09:33:19;;;;;;;7.10;6.40;;;27.40;99.90;;;;;;5048163;28;20504;-59
2023/09/08 09:35:49;;;;;;;8.85;6.05;;;27.50;99.90;;;;;;5045443;28;20552;-60
2023/09/08 09:38:18;;;;;;;6.60;5.80;;;27.70;99.90;;;;;;5043653;28;20702;-59
2023/09/08 09:40:47;;;;;;;9.65;5.38;;;27.80;99.90;;;;;;5045260;28;20241;-59
2023/09/08 09:43:17;;;;;;;6.03;5.45;;;27.80;99.90;;;;;;5044506;28;20218;-60
2023/09/08 09:45:47;;;;;;;8.32;6.22;;;27.90;99.90;;;;;;5040383;28;20223;-59
2023/09/08 09:48:19;;;;;;;9.00;6.00;;;27.90;99.90;;;;;;5044361;28;20590;-60
2023/09/08 09:50:48;;;;;;;8.70;5.93;;;27.90;99.90;;;;;;5049052;28;20196;-60
2023/09/08 09:53:18;;;;;;;12.07;6.10;;;28.00;99.90;;;;;;5046951;28;20235;-59
2023/09/08 09:55:47;;;;;;;10.98;5.72;;;28.10;99.90;;;;;;5078308;28;20226;-60
2023/09/08 09:58:16;;;;;;;7.05;5.88;;;28.40;99.90;;;;;;5045046;28;20567;-59
2023/09/08 10:00:47;;;;;;;11.75;5.43;;;28.70;99.90;;;;;;5045986;28;20221;-60
2023/09/08 10:03:20;;;;;;;6.85;5.40;;;29.00;99.90;;;;;;5046201;28;20344;-60
2023/09/08 10:05:49;;;;;;;6.53;5.28;;;29.10;99.90;;;;;;5048095;28;20242;-60
2023/09/08 10:08:18;;;;;;;5.80;5.20;;;29.20;99.90;;;;;;5045494;28;20302;-60
2023/09/08 10:10:47;;;;;;;6.18;5.43;;;29.50;99.90;;;;;;5045702;28;20629;-60
2023/09/08 10:13:24;;;;;;;8.70;5.40;;;29.60;99.90;;;;;;5045057;28;20236;-60
2023/09/08 10:15:57;;;;;;;12.13;5.53;;;29.80;99.90;;;;;;5039803;28;20225;-60
2023/09/08 10:18:27;;;;;;;7.15;4.90;;;29.90;99.90;;;;;;5043078;28;20236;-60
2023/09/08 10:21:00;;;;;;;5.65;4.82;;;30.20;99.90;;;;;;5043554;28;20197;-60
2023/09/08 10:23:35;;;;;;;10.38;5.40;;;30.10;99.90;;;;;;5040173;28;20220;-61
2023/09/08 10:26:06;;;;;;;7.03;5.45;;;30.30;99.90;;;;;;5042620;28;20745;-60
2023/09/08 10:28:35;;;;;;;11.23;5.15;;;30.50;99.90;;;;;;5039916;28;20236;-60
2023/09/08 10:31:05;;;;;;;7.10;5.30;;;30.50;99.90;;;;;;5039926;28;20571;-60
2023/09/08 10:33:37;;;;;;;13.63;5.75;;;30.40;99.90;;;;;;5040683;28;20590;-59
2023/09/08 10:36:07;;;;;;;7.63;5.95;;;30.60;99.90;;;;;;5043571;28;20243;-60
2023/09/08 10:38:36;;;;;;;8.32;5.57;;;30.70;99.90;;;;;;5041057;28;20217;-60
2023/09/08 10:41:28;;;;;;;10.23;4.80;;;30.80;99.90;;;;;;5040642;28;20951;-60
2023/09/08 10:43:59;;;;;;;6.90;4.82;;;31.20;99.90;;;;;;5042420;28;20225;-60
2023/09/08 10:46:29;;;;;;;6.35;4.15;;;31.10;99.90;;;;;;5044057;28;20220;-59
2023/09/08 10:49:06;;;;;;;4.13;3.92;;;31.00;99.90;;;;;;5042322;28;20225;-60
2023/09/08 10:51:35;;;;;;;7.55;4.70;;;31.10;99.90;;;;;;5042499;28;20362;-60
2023/09/08 10:54:04;;;;;;;11.10;4.30;;;31.50;99.90;;;;;;5044594;28;20196;-60
2023/09/08 10:56:54;;;;;;;4.13;3.85;;;31.40;99.90;;;;;;5045253;28;20184;-58
2023/09/08 10:59:25;;;;;;;7.93;4.05;;;31.40;99.90;;;;;;5045795;28;20270;-59
2023/09/08 11:01:55;;;;;;;4.32;3.92;;;31.70;99.90;;;;;;5041870;28;20319;-60
2023/09/08 11:04:27;;;;;;;4.78;4.15;;;31.60;99.90;;;;;;5040314;28;20220;-59
2023/09/08 11:06:57;;;;;;;9.27;4.32;;;31.50;99.90;;;;;;5045346;28;20239;-59
2023/09/08 11:09:26;;;;;;;7.35;4.07;;;31.60;99.90;;;;;;5044141;28;20221;-59
2023/09/08 11:11:54;;;;;;;4.75;3.80;;;31.90;99.90;;;;;;5045536;28;20208;-59
2023/09/08 11:14:23;;;;;;;6.35;4.15;;;32.00;99.90;;;;;;5042300;28;20218;-59
2023/09/08 11:16:51;;;;;;;5.35;3.90;;;31.90;99.90;;;;;;5046144;28;20219;-60
2023/09/08 11:19:19;;;;;;;4.10;3.70;;;31.80;99.90;;;;;;5038445;28;20244;-60
2023/09/08 11:21:50;;;;;;;6.47;3.80;;;31.90;99.90;;;;;;5041118;28;20227;-62
2023/09/08 11:24:19;;;;;;;7.65;3.80;;;32.00;99.90;;;;;;5041883;28;20219;-59
2023/09/08 11:26:50;;;;;;;5.25;3.85;;;32.20;99.90;;;;;;5043331;28;20244;-58
2023/09/08 11:29:19;;;;;;;5.18;4.00;;;32.20;99.90;;;;;;5041049;28;20229;-58
2023/09/08 11:31:53;;;;;;;4.05;3.75;;;32.20;99.90;;;;;;5040124;28;20255;-58
2023/09/08 11:34:22;;;;;;;4.32;4.00;;;32.30;99.90;;;;;;5033846;28;20322;-58
2023/09/08 11:36:52;;;;;;;7.50;4.57;;;32.30;99.90;;;;;;5040219;28;20235;-59
2023/09/08 11:39:24;;;;;;;3.55;3.25;;;32.30;99.90;;;;;;5041023;28;20594;-58
2023/09/08 11:41:53;;;;;;;5.55;3.97;;;32.60;99.90;;;;;;5041952;28;20195;-59
2023/09/08 11:44:22;;;;;;;8.43;3.65;;;32.60;99.90;;;;;;5041886;28;20225;-59
2023/09/08 11:46:51;;;;;;;4.72;3.75;;;32.40;99.90;;;;;;5040103;28;20598;-59
2023/09/08 11:49:20;;;;;;;4.78;3.75;;;32.60;99.90;;;;;;5040018;28;20221;-59
2023/09/08 11:51:48;;;;;;;4.05;3.75;;;32.70;99.90;;;;;;5044009;28;20282;-59
2023/09/08 11:54:19;;;;;;;5.47;3.83;;;32.80;99.90;;;;;;5041913;28;20196;-59
2023/09/08 11:56:48;;;;;;;6.25;3.80;;;32.90;99.90;;;;;;5043105;28;20193;-59
2023/09/08 11:59:17;;;;;;;7.10;3.85;;;32.90;99.90;;;;;;5041891;28;20228;-59
2023/09/08 12:01:45;;;;;;;6.30;4.00;;;32.80;99.90;;;;;;5057272;28;20241;-58
2023/09/08 12:04:19;;;;;;;4.00;3.70;;;32.70;99.90;;;;;;5042785;28;20337;-59
2023/09/08 12:06:49;;;;;;;4.20;3.80;;;32.60;99.90;;;;;;5046987;28;20629;-58
2023/09/08 12:09:19;;;;;;;7.50;4.30;;;32.60;99.90;;;;;;5044260;28;20646;-59
2023/09/08 12:11:48;;;;;;;11.38;4.50;;;32.60;99.90;;;;;;5041209;28;20202;-59
2023/09/08 12:14:16;;;;;;;4.50;4.10;;;32.40;99.90;;;;;;5045285;28;20289;-59
2023/09/08 12:16:48;;;;;;;4.75;4.10;;;32.30;99.90;;;;;;5040568;28;20570;-59
2023/09/08 12:19:32;;;;;;;4.43;4.13;;;32.30;99.90;;;;;;5039782;28;20228;-59
2023/09/08 12:22:03;;;;;;;4.95;4.40;;;32.40;99.90;;;;;;5036542;28;20231;-59
2023/09/08 12:24:50;;;;;;;6.15;4.15;;;32.60;99.90;;;;;;5042928;28;20237;-59
2023/09/08 12:27:19;;;;;;;7.88;4.70;;;32.40;99.90;;;;;;5044498;28;20213;-59
2023/09/08 12:29:58;;;;;;;6.38;4.45;;;32.40;99.90;;;;;;5042450;28;20224;-59
2023/09/08 12:32:27;;;;;;;5.07;4.40;;;32.30;99.90;;;;;;5042190;28;20225;-59
2023/09/08 12:34:56;;;;;;;6.40;4.20;;;32.40;99.90;;;;;;5042484;28;20279;-59
2023/09/08 12:37:27;;;;;;;9.27;4.05;;;32.60;99.90;;;;;;5039689;28;20222;-59
2023/09/08 12:39:57;;;;;;;4.38;4.00;;;32.70;99.90;;;;;;5040905;28;20325;-58
2023/09/08 12:42:29;;;;;;;7.65;4.25;;;32.70;99.90;;;;;;5054317;28;20263;-59
2023/09/08 12:44:59;;;;;;;6.43;4.32;;;32.70;99.90;;;;;;5042449;28;20196;-58
2023/09/08 12:47:27;;;;;;;5.43;4.20;;;32.60;99.90;;;;;;5041118;28;20224;-58
2023/09/08 12:49:56;;;;;;;5.50;4.35;;;32.60;99.90;;;;;;5046261;28;20272;-59